createdAt,value
2022-10-19T10:16:20.080Z,92.87
2022-10-19T10:17:26.934Z,93.13
2022-10-19T10:18:29.510Z,92.21
2022-10-19T10:19:33.395Z,92.50
2022-10-19T10:20:35.549Z,91.97
2022-10-19T10:21:56.750Z,92.39
2022-10-19T10:28:07.272Z,92.24
2022-10-19T10:29:28.269Z,92.14
2022-10-19T10:30:35.702Z,90.71
2022-10-19T10:31:37.225Z,91.13
2022-10-19T10:32:48.036Z,90.95
2022-10-19T10:34:10.777Z,92.26
2022-10-19T11:47:12.944Z,90.45
2022-10-19T11:48:54.802Z,89.59
2022-10-19T11:51:29.249Z,89.70
2022-10-19T11:52:46.438Z,89.52
2022-10-19T11:53:53.416Z,88.33
2022-10-19T11:55:16.062Z,88.51
2022-10-19T12:35:33.517Z,84.98
2022-10-19T13:07:04.341Z,84.62
2022-10-19T13:08:10.615Z,84.79
2022-10-19T13:09:47.862Z,85.02
2022-10-19T13:34:43.340Z,83.43
2022-10-19T13:35:45.851Z,82.76
2022-10-19T13:37:01.926Z,83.27
2022-10-19T13:38:10.401Z,82.35
2022-10-19T13:39:13.955Z,82.55
2022-10-19T13:40:23.752Z,82.58
2022-10-19T13:47:12.125Z,82.18
2022-10-19T13:48:27.898Z,82.34
2022-10-19T13:49:35.013Z,81.37
2022-10-19T13:50:43.793Z,81.64
2022-10-19T13:52:00.265Z,81.39
2022-10-19T13:53:29.345Z,81.51
2022-10-19T13:55:04.268Z,81.12
2022-10-19T13:56:40.759Z,81.54
2022-10-19T13:57:50.159Z,81.10
2022-10-19T13:59:11.977Z,79.46
2022-10-19T14:00:18.307Z,79.33
2022-10-19T14:01:45.324Z,79.61
2022-10-19T14:03:01.042Z,79.20
2022-10-19T14:04:20.050Z,79.34
2022-10-19T14:05:44.918Z,80.19
2022-10-19T14:06:58.291Z,78.54
2022-10-19T14:08:34.101Z,78.74
2022-10-19T14:10:02.124Z,79.05
2022-10-19T14:11:15.227Z,78.59
2022-10-19T14:12:23.648Z,78.46
2022-10-19T14:13:24.999Z,78.22
2022-10-19T14:14:28.227Z,76.30
2022-10-19T14:15:35.172Z,76.14
2022-10-19T14:17:03.860Z,75.18
2022-10-19T14:18:27.442Z,76.41
2022-10-19T14:19:51.252Z,76.57
2022-10-19T14:21:00.790Z,75.28
2022-10-19T14:22:19.250Z,73.36
2022-10-19T14:23:25.059Z,73.65
2022-10-19T14:24:33.382Z,73.21
2022-10-19T14:25:34.844Z,73.07
2022-10-19T14:26:36.297Z,75.72
2022-10-19T14:27:38.532Z,75.33
2022-10-19T14:28:41.846Z,75.91
2022-10-19T14:29:46.883Z,76.76
2022-10-19T14:31:00.444Z,76.20
2022-10-19T14:32:03.372Z,75.01
2022-10-19T14:51:40.028Z,75.37
2022-10-19T14:52:41.990Z,73.95
2022-10-19T14:53:56.909Z,74.30
2022-10-19T14:55:00.085Z,74.03
2022-10-19T14:56:09.660Z,74.11
2022-10-19T14:57:28.321Z,74.10
2022-10-19T14:58:38.216Z,74.28
2022-10-19T15:00:03.134Z,71.65
2022-10-19T15:01:04.884Z,70.47
2022-10-19T15:02:26.811Z,72.72
2022-10-19T15:03:29.917Z,73.86
2022-10-19T15:04:38.276Z,73.30
2022-10-19T15:05:48.094Z,71.59
2022-10-19T15:06:49.696Z,70.73
2022-10-19T15:07:51.724Z,72.09
2022-10-19T15:15:35.004Z,75.04
2022-10-19T15:16:39.410Z,75.92
2022-10-19T15:18:01.307Z,77.10
2022-10-19T15:19:06.343Z,77.55
2022-10-19T15:20:23.740Z,78.25
2022-10-19T15:21:25.171Z,78.59
2022-10-19T15:22:32.766Z,78.72
2022-10-19T15:23:48.614Z,78.38
2022-10-19T15:25:08.360Z,77.91
2022-10-19T15:26:29.326Z,78.93
2022-10-19T15:27:30.644Z,79.05
2022-10-19T15:28:39.153Z,78.62
2022-10-19T15:29:59.763Z,78.33
2022-10-19T15:31:05.198Z,78.21
2022-10-19T15:32:14.466Z,78.24
2022-10-19T15:33:15.880Z,77.90
2022-10-19T15:34:30.731Z,78.15
2022-10-19T15:35:40.521Z,78.66
